createdAt,value
2019-01-21T00:00:00.028Z,1018.56
2019-01-21T00:01:00.031Z,1018.58
2019-01-21T00:01:59.907Z,1018.59
2019-01-21T00:02:59.908Z,1018.61
2019-01-21T00:03:59.909Z,1018.59
2019-01-21T00:04:59.788Z,1018.58
2019-01-21T00:05:59.786Z,1018.57
2019-01-21T00:06:59.666Z,1018.58
2019-01-21T00:07:59.667Z,1018.62
2019-01-21T00:08:59.548Z,1018.63
2019-01-21T00:09:59.548Z,1018.65
2019-01-21T00:10:59.425Z,1018.63
2019-01-21T00:11:59.441Z,1018.64
2019-01-21T00:12:59.421Z,1018.60
2019-01-21T00:13:59.306Z,1018.63
2019-01-21T00:14:59.304Z,1018.59
2019-01-21T00:15:59.183Z,1018.62
2019-01-21T00:16:59.184Z,1018.66
2019-01-21T00:17:59.064Z,1018.67
2019-01-21T00:18:59.067Z,1018.67
2019-01-21T00:19:58.944Z,1018.65
2019-01-21T00:20:58.942Z,1018.68
2019-01-21T00:21:58.905Z,1018.70
2019-01-21T00:22:58.823Z,1018.72
2019-01-21T00:23:58.829Z,1018.72
2019-01-21T00:24:58.702Z,1018.76
2019-01-21T00:25:58.704Z,1018.69
2019-01-21T00:26:58.582Z,1018.70
2019-01-21T00:27:58.581Z,1018.66
2019-01-21T00:28:58.462Z,1018.67
2019-01-21T00:29:58.462Z,1018.69
2019-01-21T00:30:58.341Z,1018.64
2019-01-21T00:31:58.343Z,1018.64
2019-01-21T00:32:58.340Z,1018.67
2019-01-21T00:33:58.220Z,1018.69
2019-01-21T00:34:58.220Z,1018.69
2019-01-21T00:35:58.102Z,1018.65
2019-01-21T00:37:03.492Z,1018.73
2019-01-21T00:37:57.979Z,1018.68
2019-01-21T00:38:57.979Z,1018.64
2019-01-21T00:39:57.862Z,1018.65
2019-01-21T00:40:57.858Z,1018.67
2019-01-21T00:41:57.858Z,1018.67
2019-01-21T00:42:57.738Z,1018.66
2019-01-21T00:43:57.739Z,1018.66
2019-01-21T00:45:01.299Z,1018.66
2019-01-21T00:45:57.619Z,1018.68
2019-01-21T00:46:57.497Z,1018.65
2019-01-21T00:47:57.498Z,1018.60
2019-01-21T00:48:57.384Z,1018.61
2019-01-21T00:49:57.375Z,1018.61
2019-01-21T00:50:57.375Z,1018.62
2019-01-21T00:51:57.260Z,1018.61
2019-01-21T00:52:57.265Z,1018.60
2019-01-21T00:53:57.136Z,1018.62
2019-01-21T00:54:57.135Z,1018.61
2019-01-21T00:55:57.023Z,1018.62
2019-01-21T00:56:57.020Z,1018.63
2019-01-21T00:57:56.895Z,1018.57
2019-01-21T00:58:56.896Z,1018.58
2019-01-21T00:59:56.895Z,1018.60
2019-01-21T01:00:56.774Z,1018.61
2019-01-21T01:01:56.775Z,1018.64
2019-01-21T01:02:56.654Z,1018.60
2019-01-21T01:03:56.654Z,1018.57
2019-01-21T01:04:56.535Z,1018.59
2019-01-21T01:05:56.536Z,1018.62
2019-01-21T01:06:56.413Z,1018.63
2019-01-21T01:07:56.415Z,1018.61
2019-01-21T01:08:56.377Z,1018.63
2019-01-21T01:09:56.292Z,1018.59
2019-01-21T01:10:56.293Z,1018.62
2019-01-21T01:11:56.179Z,1018.59
2019-01-21T01:12:56.172Z,1018.62
2019-01-21T01:13:56.054Z,1018.62
2019-01-21T01:14:56.056Z,1018.60
2019-01-21T01:15:55.935Z,1018.60
2019-01-21T01:16:55.933Z,1018.60
2019-01-21T01:17:55.893Z,1018.58
2019-01-21T01:18:55.809Z,1018.63
2019-01-21T01:19:55.811Z,1018.59
2019-01-21T01:20:55.694Z,1018.64
2019-01-21T01:21:55.690Z,1018.72
2019-01-21T01:22:55.571Z,1018.71
2019-01-21T01:23:55.570Z,1018.77
2019-01-21T01:24:55.451Z,1018.80
2019-01-21T01:25:55.451Z,1018.82
2019-01-21T01:26:55.329Z,1018.80
2019-01-21T01:27:55.330Z,1018.84
2019-01-21T01:28:55.333Z,1018.85
2019-01-21T01:29:55.210Z,1018.92
2019-01-21T01:30:55.208Z,1018.91
2019-01-21T01:31:55.087Z,1018.94
2019-01-21T01:32:55.089Z,1018.95
2019-01-21T01:33:54.966Z,1018.92
2019-01-21T01:34:54.968Z,1018.91
2019-01-21T01:35:54.847Z,1018.94
2019-01-21T01:36:54.848Z,1018.93
2019-01-21T01:37:54.852Z,1018.92
2019-01-21T01:38:54.730Z,1018.95
2019-01-21T01:39:54.769Z,1018.95
2019-01-21T01:40:54.605Z,1018.94
2019-01-21T01:41:54.615Z,1018.96
2019-01-21T01:42:54.486Z,1018.99
2019-01-21T01:43:54.484Z,1019.02
2019-01-21T01:44:54.370Z,1018.97
2019-01-21T01:45:54.367Z,1018.99
2019-01-21T01:46:54.243Z,1018.99
2019-01-21T01:47:54.251Z,1019.03
2019-01-21T01:48:54.246Z,1019.08
2019-01-21T01:49:54.124Z,1019.10
2019-01-21T01:50:54.210Z,1019.10
2019-01-21T01:51:54.004Z,1019.12
2019-01-21T01:52:54.003Z,1019.13
2019-01-21T01:53:53.882Z,1019.16
2019-01-21T01:54:53.885Z,1019.20
2019-01-21T01:55:53.763Z,1019.19
2019-01-21T01:56:53.767Z,1019.24
2019-01-21T01:57:53.763Z,1019.25
2019-01-21T01:58:53.648Z,1019.24
2019-01-21T01:59:53.643Z,1019.21
2019-01-21T02:00:53.524Z,1019.19
2019-01-21T02:01:53.520Z,1019.19
2019-01-21T02:02:53.403Z,1019.17
2019-01-21T02:03:53.406Z,1019.18
2019-01-21T02:04:53.363Z,1019.14
2019-01-21T02:05:53.283Z,1019.16
2019-01-21T02:06:53.244Z,1019.16
2019-01-21T02:07:53.175Z,1019.16
2019-01-21T02:08:53.159Z,1019.19
2019-01-21T02:09:53.039Z,1019.15
2019-01-21T02:10:53.039Z,1019.15
2019-01-21T02:11:52.919Z,1019.13
2019-01-21T02:12:52.923Z,1019.12
2019-01-21T02:13:52.799Z,1019.01
2019-01-21T02:14:52.798Z,1019.13
2019-01-21T02:15:52.767Z,1019.13
2019-01-21T02:16:52.678Z,1019.12
2019-01-21T02:17:52.684Z,1019.16
2019-01-21T02:18:52.639Z,1019.14
2019-01-21T02:19:52.557Z,1019.18
2019-01-21T02:20:52.436Z,1019.20
2019-01-21T02:21:52.439Z,1019.17
2019-01-21T02:22:52.317Z,1019.14
2019-01-21T02:23:52.315Z,1019.16
2019-01-21T02:24:52.198Z,1019.16
2019-01-21T02:25:52.197Z,1019.12
2019-01-21T02:26:52.198Z,1019.18
2019-01-21T02:27:52.077Z,1019.14
2019-01-21T02:28:52.080Z,1019.14
2019-01-21T02:29:51.954Z,1019.15
2019-01-21T02:30:51.956Z,1019.12
2019-01-21T02:31:51.840Z,1019.14
2019-01-21T02:32:51.834Z,1019.15
2019-01-21T02:33:51.721Z,1019.15
2019-01-21T02:34:51.725Z,1019.11
2019-01-21T02:35:51.677Z,1019.14
2019-01-21T02:36:51.597Z,1019.11
2019-01-21T02:37:51.593Z,1019.11
2019-01-21T02:38:51.495Z,1019.08
2019-01-21T02:39:51.479Z,1019.09
2019-01-21T02:40:51.353Z,1019.11
2019-01-21T02:41:51.352Z,1019.08
2019-01-21T02:42:51.234Z,1019.08
2019-01-21T02:43:51.235Z,1019.08
2019-01-21T02:44:51.201Z,1019.13
2019-01-21T02:45:51.113Z,1019.11
2019-01-21T02:46:51.114Z,1019.15
2019-01-21T02:47:50.999Z,1019.08
2019-01-21T02:48:50.992Z,1019.05
2019-01-21T02:49:50.875Z,1019.10
2019-01-21T02:50:50.873Z,1019.07
2019-01-21T02:51:50.835Z,1019.05
2019-01-21T02:52:50.749Z,1019.07
2019-01-21T02:53:50.750Z,1019.05
2019-01-21T02:54:50.752Z,1019.06
2019-01-21T02:55:50.629Z,1019.07
2019-01-21T02:56:50.632Z,1019.06
2019-01-21T02:57:50.649Z,1019.12
2019-01-21T02:58:50.593Z,1019.10
2019-01-21T02:59:50.388Z,1019.02
2019-01-21T03:00:50.269Z,1019.04
2019-01-21T03:01:50.272Z,1019.07
2019-01-21T03:02:50.148Z,1019.04
2019-01-21T03:03:50.147Z,1019.10
2019-01-21T03:04:50.028Z,1019.11
2019-01-21T03:05:50.026Z,1019.12
2019-01-21T03:06:50.027Z,1019.13
2019-01-21T03:07:49.916Z,1019.11
2019-01-21T03:08:49.908Z,1019.12
2019-01-21T03:09:49.788Z,1019.10
2019-01-21T03:10:49.789Z,1019.12
2019-01-21T03:11:49.665Z,1019.11
2019-01-21T03:12:49.665Z,1019.10
2019-01-21T03:13:49.557Z,1019.08
2019-01-21T03:14:49.545Z,1019.10
2019-01-21T03:15:49.546Z,1019.07
2019-01-21T03:16:49.425Z,1019.08
2019-01-21T03:17:49.425Z,1019.08
2019-01-21T03:18:49.305Z,1019.07
2019-01-21T03:19:49.305Z,1018.98
2019-01-21T03:20:49.186Z,1019.02
2019-01-21T03:21:49.184Z,1018.98
2019-01-21T03:22:49.067Z,1018.98
2019-01-21T03:23:49.064Z,1018.97
2019-01-21T03:24:48.942Z,1018.95
2019-01-21T03:25:48.945Z,1018.96
2019-01-21T03:26:48.944Z,1018.97
2019-01-21T03:27:48.826Z,1018.99
2019-01-21T03:28:48.824Z,1018.95
2019-01-21T03:29:48.701Z,1018.98
2019-01-21T03:30:48.710Z,1018.92
2019-01-21T03:31:48.599Z,1018.91
2019-01-21T03:32:48.584Z,1018.92
2019-01-21T03:33:48.469Z,1018.90
2019-01-21T03:34:48.462Z,1018.92
2019-01-21T03:35:48.457Z,1018.86
2019-01-21T03:36:48.342Z,1018.84
2019-01-21T03:37:48.342Z,1018.88
2019-01-21T03:38:48.223Z,1018.88
2019-01-21T03:39:48.233Z,1018.85
2019-01-21T03:40:48.100Z,1018.87
2019-01-21T03:41:48.100Z,1018.90
2019-01-21T03:42:47.979Z,1018.89
2019-01-21T03:43:47.982Z,1018.91
2019-01-21T03:44:47.858Z,1018.88
2019-01-21T03:45:47.859Z,1018.90
2019-01-21T03:46:47.862Z,1018.91
2019-01-21T03:47:47.738Z,1018.94
2019-01-21T03:48:47.739Z,1018.92
2019-01-21T03:49:47.619Z,1018.93
2019-01-21T03:50:47.617Z,1018.93
2019-01-21T03:51:47.497Z,1018.90
2019-01-21T03:52:47.502Z,1018.95
2019-01-21T03:53:47.377Z,1018.92
2019-01-21T03:54:47.376Z,1018.95
2019-01-21T03:55:47.342Z,1018.96
2019-01-21T03:56:47.258Z,1018.98
2019-01-21T03:57:47.255Z,1018.93
2019-01-21T03:58:47.134Z,1018.94
2019-01-21T03:59:47.143Z,1018.90
2019-01-21T04:00:47.018Z,1018.93
2019-01-21T04:01:47.014Z,1018.92
2019-01-21T04:02:46.894Z,1018.92
2019-01-21T04:03:46.896Z,1018.91
2019-01-21T04:04:46.777Z,1018.90
2019-01-21T04:05:46.778Z,1018.90
2019-01-21T04:06:46.780Z,1018.88
2019-01-21T04:07:46.655Z,1018.77
2019-01-21T04:08:46.660Z,1018.91
2019-01-21T04:09:46.535Z,1018.88
2019-01-21T04:10:46.533Z,1018.88
2019-01-21T04:11:46.412Z,1018.92
2019-01-21T04:12:46.416Z,1018.93
2019-01-21T04:13:46.292Z,1018.97
2019-01-21T04:14:46.294Z,1018.91
2019-01-21T04:15:46.178Z,1018.91
2019-01-21T04:16:46.171Z,1018.87
2019-01-21T04:17:46.174Z,1018.85
2019-01-21T04:18:46.058Z,1018.88
2019-01-21T04:19:46.054Z,1018.84
2019-01-21T04:20:45.932Z,1018.88
2019-01-21T04:21:45.937Z,1018.95
2019-01-21T04:22:45.812Z,1018.91
2019-01-21T04:23:45.811Z,1018.95
2019-01-21T04:24:45.694Z,1018.92
2019-01-21T04:25:45.691Z,1018.92
2019-01-21T04:26:45.654Z,1018.94
2019-01-21T04:27:45.569Z,1018.91
2019-01-21T04:28:45.568Z,1018.91
2019-01-21T04:29:45.448Z,1018.91
2019-01-21T04:30:45.451Z,1018.87
2019-01-21T04:31:45.331Z,1018.90
2019-01-21T04:32:45.331Z,1018.89
2019-01-21T04:33:45.208Z,1018.86
2019-01-21T04:34:45.212Z,1018.86
2019-01-21T04:35:45.089Z,1018.88
2019-01-21T04:36:45.088Z,1018.90
2019-01-21T04:37:45.089Z,1018.92
2019-01-21T04:38:44.969Z,1018.87
2019-01-21T04:39:44.971Z,1018.93
2019-01-21T04:40:44.853Z,1018.89
2019-01-21T04:41:44.847Z,1018.86
2019-01-21T04:42:44.728Z,1018.87
2019-01-21T04:43:44.726Z,1018.85
2019-01-21T04:44:44.611Z,1018.87
2019-01-21T04:45:44.606Z,1018.88
2019-01-21T04:46:44.488Z,1018.86
2019-01-21T04:47:44.486Z,1018.91
2019-01-21T04:48:44.485Z,1018.95
2019-01-21T04:49:44.366Z,1018.93
2019-01-21T04:50:44.373Z,1018.93
2019-01-21T04:51:44.246Z,1018.94
2019-01-21T04:52:44.247Z,1018.97
2019-01-21T04:53:44.129Z,1018.95
2019-01-21T04:54:44.126Z,1018.93
2019-01-21T04:55:44.006Z,1018.93
2019-01-21T04:56:44.013Z,1018.91
2019-01-21T04:57:44.005Z,1018.93
2019-01-21T04:58:43.886Z,1018.97
2019-01-21T04:59:43.887Z,1018.93
2019-01-21T05:00:43.772Z,1018.89
2019-01-21T05:01:43.768Z,1018.92
2019-01-21T05:02:43.643Z,1018.96
2019-01-21T05:03:43.642Z,1018.95
2019-01-21T05:04:43.521Z,1018.91
2019-01-21T05:05:43.524Z,1018.89
2019-01-21T05:06:43.402Z,1018.94
2019-01-21T05:07:43.406Z,1018.86
2019-01-21T05:08:43.413Z,1018.85
2019-01-21T05:09:43.284Z,1018.83
2019-01-21T05:10:43.281Z,1018.81
2019-01-21T05:11:43.165Z,1018.75
2019-01-21T05:12:43.163Z,1018.88
2019-01-21T05:13:43.048Z,1018.82
2019-01-21T05:14:44.019Z,1018.87
2019-01-21T05:15:42.922Z,1018.85
2019-01-21T05:16:42.922Z,1018.88
2019-01-21T05:17:42.888Z,1018.85
2019-01-21T05:18:42.801Z,1018.89
2019-01-21T05:19:42.803Z,1018.89
2019-01-21T05:20:42.680Z,1018.89
2019-01-21T05:21:42.689Z,1018.91
2019-01-21T05:22:42.562Z,1018.97
2019-01-21T05:23:42.562Z,1018.97
2019-01-21T05:24:42.437Z,1018.95
2019-01-21T05:25:42.438Z,1018.95
2019-01-21T05:26:42.317Z,1018.91
2019-01-21T05:27:42.317Z,1018.97
2019-01-21T05:28:42.321Z,1018.90
2019-01-21T05:29:42.198Z,1018.94
2019-01-21T05:30:42.195Z,1018.92
2019-01-21T05:31:42.086Z,1018.88
2019-01-21T05:32:42.078Z,1018.84
2019-01-21T05:33:41.973Z,1018.87
2019-01-21T05:34:41.957Z,1018.90
2019-01-21T05:35:41.835Z,1018.88
2019-01-21T05:36:41.836Z,1018.86
2019-01-21T05:37:41.716Z,1018.82
2019-01-21T05:38:41.715Z,1018.79
2019-01-21T05:39:41.714Z,1018.78
2019-01-21T05:40:41.593Z,1018.76
2019-01-21T05:41:41.593Z,1018.73
2019-01-21T05:42:41.477Z,1018.71
2019-01-21T05:43:41.480Z,1018.71
2019-01-21T05:44:41.359Z,1018.71
2019-01-21T05:45:41.353Z,1018.75
2019-01-21T05:46:41.232Z,1018.77
2019-01-21T05:47:41.234Z,1018.78
2019-01-21T05:48:48.731Z,1018.79
2019-01-21T05:49:41.117Z,1018.77
2019-01-21T05:50:41.115Z,1018.78
2019-01-21T05:51:41.003Z,1018.79
2019-01-21T05:52:41.009Z,1018.80
2019-01-21T05:53:40.872Z,1018.83
2019-01-21T05:54:40.872Z,1018.88
2019-01-21T05:55:40.781Z,1018.84
2019-01-21T05:56:40.750Z,1018.86
2019-01-21T05:57:40.632Z,1018.84
2019-01-21T05:58:40.631Z,1018.85
2019-01-21T05:59:40.626Z,1018.82
2019-01-21T06:00:40.510Z,1018.85
2019-01-21T06:01:40.514Z,1018.86
2019-01-21T06:02:40.392Z,1018.82
2019-01-21T06:03:40.391Z,1018.84
2019-01-21T06:04:40.361Z,1018.85
2019-01-21T06:05:40.272Z,1018.82
2019-01-21T06:06:40.151Z,1018.84
2019-01-21T06:07:40.150Z,1018.84
2019-01-21T06:08:40.028Z,1018.84
2019-01-21T06:09:40.030Z,1018.87
2019-01-21T06:10:40.029Z,1018.79
2019-01-21T06:11:39.907Z,1018.88
2019-01-21T06:12:39.913Z,1018.90
2019-01-21T06:13:39.787Z,1018.88
2019-01-21T06:14:39.792Z,1018.91
2019-01-21T06:15:39.667Z,1018.93
2019-01-21T06:16:39.727Z,1018.96
2019-01-21T06:17:39.547Z,1018.97
2019-01-21T06:18:39.545Z,1018.92
2019-01-21T06:19:39.427Z,1018.94
2019-01-21T06:20:39.425Z,1018.96
2019-01-21T06:21:39.428Z,1018.96
2019-01-21T06:22:39.307Z,1019.02
2019-01-21T06:23:39.305Z,1019.03
2019-01-21T06:24:39.187Z,1019.01
2019-01-21T06:25:39.189Z,1018.99
2019-01-21T06:26:39.066Z,1019.03
2019-01-21T06:27:39.065Z,1018.98
2019-01-21T06:28:38.944Z,1018.97
2019-01-21T06:29:38.942Z,1018.99
2019-01-21T06:30:38.911Z,1019.01
2019-01-21T06:31:38.829Z,1019.03
2019-01-21T06:32:38.826Z,1019.03
2019-01-21T06:33:38.716Z,1019.00
2019-01-21T06:34:38.714Z,1018.99
2019-01-21T06:35:38.584Z,1019.02
2019-01-21T06:36:38.581Z,1019.01
2019-01-21T06:37:38.460Z,1018.98
2019-01-21T06:38:38.468Z,1019.04
2019-01-21T06:39:38.346Z,1019.04
2019-01-21T06:40:38.340Z,1019.06
2019-01-21T06:41:38.371Z,1019.07
2019-01-21T06:42:38.225Z,1019.06
2019-01-21T06:43:38.224Z,1019.06
2019-01-21T06:44:38.107Z,1018.98
2019-01-21T06:45:38.099Z,1019.05
2019-01-21T06:46:37.980Z,1019.02
2019-01-21T06:47:37.979Z,1019.00
2019-01-21T06:48:37.859Z,1019.02
2019-01-21T06:49:37.864Z,1019.01
2019-01-21T06:50:37.740Z,1019.02
2019-01-21T06:51:37.739Z,1019.05
2019-01-21T06:52:37.740Z,1019.05
2019-01-21T06:53:37.723Z,1019.06
2019-01-21T06:54:37.826Z,1019.07
2019-01-21T06:55:37.504Z,1019.10
2019-01-21T06:56:37.532Z,1019.13
2019-01-21T06:57:37.377Z,1019.10
2019-01-21T06:58:37.823Z,1019.07
2019-01-21T06:59:37.261Z,1019.09
2019-01-21T07:00:37.258Z,1019.10
2019-01-21T07:01:37.219Z,1019.13
2019-01-21T07:02:37.139Z,1019.16
2019-01-21T07:03:37.143Z,1019.14
2019-01-21T07:04:37.018Z,1019.18
2019-01-21T07:05:37.015Z,1019.14
2019-01-21T07:06:36.904Z,1019.21
2019-01-21T07:07:36.897Z,1019.20
2019-01-21T07:08:36.782Z,1019.18
2019-01-21T07:09:36.773Z,1019.20
2019-01-21T07:10:36.660Z,1019.25
2019-01-21T07:11:36.657Z,1019.23
2019-01-21T07:12:36.656Z,1019.25
2019-01-21T07:13:36.573Z,1019.22
2019-01-21T07:14:36.534Z,1019.26
2019-01-21T07:15:36.415Z,1019.27
2019-01-21T07:16:36.414Z,1019.30
2019-01-21T07:17:36.294Z,1019.31
2019-01-21T07:18:36.294Z,1019.32
2019-01-21T07:19:36.174Z,1019.26
2019-01-21T07:20:36.171Z,1019.32
2019-01-21T07:21:36.057Z,1019.33
2019-01-21T07:22:36.056Z,1019.29
2019-01-21T07:23:36.051Z,1019.32
2019-01-21T07:24:35.931Z,1019.31
2019-01-21T07:25:35.931Z,1019.35
2019-01-21T07:26:35.822Z,1019.33
2019-01-21T07:27:35.811Z,1019.34
2019-01-21T07:28:35.814Z,1019.37
2019-01-21T07:29:35.694Z,1019.39
2019-01-21T07:30:35.686Z,1019.38
2019-01-21T07:31:35.653Z,1019.37
2019-01-21T07:32:35.654Z,1019.42
2019-01-21T07:33:35.450Z,1019.37
2019-01-21T07:34:35.450Z,1019.40
2019-01-21T07:35:35.332Z,1019.44
2019-01-21T07:36:35.330Z,1019.41
2019-01-21T07:37:35.209Z,1019.46
2019-01-21T07:38:35.215Z,1019.48
2019-01-21T07:39:35.090Z,1019.52
2019-01-21T07:40:35.087Z,1019.60
2019-01-21T07:41:34.969Z,1019.58
2019-01-21T07:42:34.968Z,1019.58
2019-01-21T07:43:34.970Z,1019.56
2019-01-21T07:44:34.852Z,1019.56
2019-01-21T07:45:34.847Z,1019.51
2019-01-21T07:46:34.727Z,1019.54
2019-01-21T07:47:34.727Z,1019.58
2019-01-21T07:48:34.606Z,1019.54
2019-01-21T07:49:34.605Z,1019.52
2019-01-21T07:50:34.487Z,1019.53
2019-01-21T07:51:34.487Z,1019.52
2019-01-21T07:52:34.370Z,1019.54
2019-01-21T07:53:34.366Z,1019.52
2019-01-21T07:54:34.372Z,1019.54
2019-01-21T07:55:34.244Z,1019.52
2019-01-21T07:56:34.247Z,1019.54
2019-01-21T07:57:34.125Z,1019.55
2019-01-21T07:58:34.129Z,1019.58
2019-01-21T07:59:34.003Z,1019.55
2019-01-21T08:00:34.006Z,1019.53
2019-01-21T08:01:33.883Z,1019.56
2019-01-21T08:02:33.884Z,1019.58
2019-01-21T08:03:33.764Z,1019.61
2019-01-21T08:04:33.765Z,1019.62
2019-01-21T08:05:33.762Z,1019.65
2019-01-21T08:06:33.643Z,1019.65
2019-01-21T08:07:33.646Z,1019.71
2019-01-21T08:08:33.523Z,1019.74
2019-01-21T08:09:33.524Z,1019.76
2019-01-21T08:10:33.401Z,1019.75
2019-01-21T08:11:33.404Z,1019.76
2019-01-21T08:12:33.282Z,1019.81
2019-01-21T08:13:33.281Z,1019.78
2019-01-21T08:14:33.280Z,1019.81
2019-01-21T08:15:33.160Z,1019.82
2019-01-21T08:16:33.160Z,1019.87
2019-01-21T08:17:33.040Z,1019.88
2019-01-21T08:18:33.040Z,1019.89
2019-01-21T08:19:32.919Z,1019.93
2019-01-21T08:20:32.922Z,1019.93
2019-01-21T08:21:32.804Z,1019.93
2019-01-21T08:22:32.800Z,1019.89
2019-01-21T08:23:32.679Z,1019.92
2019-01-21T08:24:32.679Z,1019.94
2019-01-21T08:25:32.681Z,1019.93
2019-01-21T08:26:32.562Z,1019.97
2019-01-21T08:27:32.557Z,1020.00
2019-01-21T08:28:32.437Z,1020.05
2019-01-21T08:29:32.437Z,1020.03
2019-01-21T08:30:32.317Z,1019.98
2019-01-21T08:31:32.319Z,1020.00
2019-01-21T08:32:32.200Z,1019.98
2019-01-21T08:33:32.201Z,1019.98
2019-01-21T08:34:32.197Z,1019.96
2019-01-21T08:35:32.076Z,1019.98
2019-01-21T08:36:32.080Z,1020.05
2019-01-21T08:37:31.956Z,1020.07
2019-01-21T08:38:31.958Z,1020.01
2019-01-21T08:39:31.839Z,1020.01
2019-01-21T08:40:31.837Z,1020.01
2019-01-21T08:41:31.715Z,1019.96
2019-01-21T08:42:31.718Z,1019.94
2019-01-21T08:43:31.678Z,1019.93
2019-01-21T08:44:31.594Z,1019.89
2019-01-21T08:45:31.593Z,1019.95
2019-01-21T08:46:31.477Z,1019.95
2019-01-21T08:47:31.490Z,1019.94
2019-01-21T08:48:31.354Z,1019.94
2019-01-21T08:49:31.378Z,1019.92
2019-01-21T08:50:31.234Z,1019.98
2019-01-21T08:51:31.232Z,1020.01
2019-01-21T08:52:31.203Z,1019.99
2019-01-21T08:53:31.112Z,1019.98
2019-01-21T08:54:31.112Z,1019.98
2019-01-21T08:55:30.994Z,1019.94
2019-01-21T08:56:30.991Z,1019.94
2019-01-21T08:57:30.873Z,1019.96
2019-01-21T08:58:30.874Z,1019.94
2019-01-21T08:59:30.751Z,1019.95
2019-01-21T09:00:30.753Z,1019.94
2019-01-21T09:01:30.714Z,1019.96
2019-01-21T09:02:30.631Z,1019.95
2019-01-21T09:03:30.631Z,1020.01
2019-01-21T09:04:30.509Z,1019.96
2019-01-21T09:05:30.509Z,1020.02
2019-01-21T09:06:30.389Z,1019.97
2019-01-21T09:07:30.389Z,1019.97
2019-01-21T09:08:30.279Z,1019.98
2019-01-21T09:09:30.270Z,1020.00
2019-01-21T09:10:30.234Z,1020.01
2019-01-21T09:11:30.151Z,1019.99
2019-01-21T09:12:30.147Z,1019.98
2019-01-21T09:13:30.030Z,1020.00
2019-01-21T09:14:30.032Z,1019.91
2019-01-21T09:15:29.909Z,1019.95
2019-01-21T09:16:29.911Z,1019.96
2019-01-21T09:17:29.786Z,1019.96
2019-01-21T09:18:29.787Z,1019.95
2019-01-21T09:19:29.750Z,1019.92
2019-01-21T09:20:29.671Z,1019.85
2019-01-21T09:21:29.669Z,1019.88
2019-01-21T09:22:29.550Z,1019.91
2019-01-21T09:23:29.548Z,1019.93
2019-01-21T09:24:29.426Z,1019.90
2019-01-21T09:25:29.426Z,1019.86
2019-01-21T09:26:29.310Z,1019.85
2019-01-21T09:27:29.304Z,1019.89
2019-01-21T09:28:29.313Z,1019.92
2019-01-21T09:29:29.184Z,1019.92
2019-01-21T09:30:29.189Z,1019.98
2019-01-21T09:31:29.064Z,1019.98
2019-01-21T09:32:29.064Z,1019.91
2019-01-21T09:33:28.945Z,1019.93
2019-01-21T09:34:28.943Z,1019.89
2019-01-21T09:35:28.824Z,1019.90
2019-01-21T09:36:28.823Z,1019.85
2019-01-21T09:37:28.829Z,1019.85
2019-01-21T09:38:28.705Z,1019.87
2019-01-21T09:39:28.705Z,1019.89
2019-01-21T09:40:28.583Z,1019.93
2019-01-21T09:41:28.585Z,1019.96
2019-01-21T09:42:28.475Z,1019.96
2019-01-21T09:43:28.465Z,1020.00
2019-01-21T09:44:28.427Z,1020.04
2019-01-21T09:45:28.342Z,1020.06
2019-01-21T09:46:28.341Z,1020.04
2019-01-21T09:47:28.221Z,1020.01
2019-01-21T09:48:28.223Z,1020.02
2019-01-21T09:49:28.102Z,1020.05
2019-01-21T09:50:28.102Z,1020.06
2019-01-21T09:51:27.987Z,1020.04
2019-01-21T09:52:27.981Z,1020.09
2019-01-21T09:53:27.982Z,1020.07
2019-01-21T09:54:27.861Z,1020.00
2019-01-21T09:55:27.858Z,1019.99
2019-01-21T09:56:27.741Z,1019.98
2019-01-21T09:57:27.741Z,1019.99
2019-01-21T09:58:27.626Z,1020.03
2019-01-21T09:59:27.620Z,1020.05
2019-01-21T10:00:27.508Z,1020.05
2019-01-21T10:01:27.496Z,1020.08
2019-01-21T10:02:27.500Z,1020.09
2019-01-21T10:03:27.384Z,1020.10
2019-01-21T10:04:27.376Z,1020.07
2019-01-21T10:05:27.256Z,1020.12
2019-01-21T10:06:27.259Z,1020.07
2019-01-21T10:07:27.137Z,1020.08
2019-01-21T10:08:27.138Z,1020.10
2019-01-21T10:09:27.136Z,1020.08
2019-01-21T10:10:27.016Z,1020.10
2019-01-21T10:11:27.023Z,1020.05
2019-01-21T10:12:26.901Z,1020.00
2019-01-21T10:13:26.899Z,1020.01
2019-01-21T10:14:26.776Z,1019.98
2019-01-21T10:15:26.778Z,1019.99
2019-01-21T10:16:26.738Z,1019.95
2019-01-21T10:17:26.658Z,1019.92
2019-01-21T10:18:26.666Z,1019.96
2019-01-21T10:19:26.534Z,1019.95
2019-01-21T10:20:26.533Z,1019.97
2019-01-21T10:21:26.414Z,1019.95
2019-01-21T10:22:26.415Z,1019.90
2019-01-21T10:23:26.293Z,1019.88
2019-01-21T10:24:26.292Z,1019.89
2019-01-21T10:25:26.294Z,1019.88
2019-01-21T10:26:26.173Z,1019.88
2019-01-21T10:27:26.188Z,1019.83
2019-01-21T10:28:26.061Z,1019.86
2019-01-21T10:29:26.052Z,1019.86
2019-01-21T10:30:25.933Z,1019.79
2019-01-21T10:31:25.934Z,1019.79
2019-01-21T10:32:25.931Z,1019.79
2019-01-21T10:33:25.809Z,1019.73
2019-01-21T10:34:25.813Z,1019.77
2019-01-21T10:35:25.689Z,1019.74
2019-01-21T10:36:25.690Z,1019.70
2019-01-21T10:37:25.571Z,1019.70
2019-01-21T10:38:25.569Z,1019.69
2019-01-21T10:39:25.583Z,1019.68
2019-01-21T10:40:25.451Z,1019.71
2019-01-21T10:41:25.452Z,1019.70
2019-01-21T10:42:25.329Z,1019.75
2019-01-21T10:43:25.333Z,1019.70
2019-01-21T10:44:25.216Z,1019.68
2019-01-21T10:45:25.212Z,1019.69
2019-01-21T10:46:25.175Z,1019.63
2019-01-21T10:47:25.091Z,1019.62
2019-01-21T10:48:25.090Z,1019.61
2019-01-21T10:49:24.967Z,1019.58
2019-01-21T10:50:24.972Z,1019.56
2019-01-21T10:51:24.850Z,1019.53
2019-01-21T10:52:24.847Z,1019.50
2019-01-21T10:53:24.809Z,1019.49
2019-01-21T10:54:24.726Z,1019.49
2019-01-21T10:55:24.727Z,1019.53
2019-01-21T10:56:24.606Z,1019.53
2019-01-21T10:57:24.605Z,1019.52
2019-01-21T10:58:24.490Z,1019.50
2019-01-21T10:59:24.486Z,1019.50
2019-01-21T11:00:24.448Z,1019.48
2019-01-21T11:01:24.366Z,1019.51
2019-01-21T11:02:24.364Z,1019.41
2019-01-21T11:03:24.247Z,1019.37
2019-01-21T11:04:24.250Z,1019.33
2019-01-21T11:05:24.131Z,1019.33
2019-01-21T11:06:24.125Z,1019.36
2019-01-21T11:07:24.004Z,1019.35
2019-01-21T11:08:24.002Z,1019.33
2019-01-21T11:09:26.794Z,1019.30
2019-01-21T11:10:23.883Z,1019.30
2019-01-21T11:11:23.883Z,1019.32
2019-01-21T11:12:23.762Z,1019.31
2019-01-21T11:13:23.765Z,1019.39
2019-01-21T11:14:23.725Z,1019.36
2019-01-21T11:15:23.644Z,1019.33
2019-01-21T11:16:23.645Z,1019.34
2019-01-21T11:17:23.520Z,1019.34
2019-01-21T11:18:23.520Z,1019.35
2019-01-21T11:19:23.405Z,1019.35
2019-01-21T11:20:23.402Z,1019.34
2019-01-21T11:21:23.281Z,1019.39
2019-01-21T11:22:23.282Z,1019.35
2019-01-21T11:23:23.282Z,1019.36
2019-01-21T11:24:23.163Z,1019.37
2019-01-21T11:25:23.162Z,1019.35
2019-01-21T11:26:23.040Z,1019.34
2019-01-21T11:27:23.041Z,1019.34
2019-01-21T11:28:22.920Z,1019.38
2019-01-21T11:29:22.919Z,1019.34
2019-01-21T11:30:22.923Z,1019.36
2019-01-21T11:31:23.782Z,1019.28
2019-01-21T11:32:22.797Z,1019.24
2019-01-21T11:33:22.681Z,1019.22
2019-01-21T11:34:22.681Z,1019.22
2019-01-21T11:35:22.560Z,1019.20
2019-01-21T11:36:22.558Z,1019.19
2019-01-21T11:37:22.558Z,1019.18
2019-01-21T11:38:22.437Z,1019.21
2019-01-21T11:39:22.438Z,1019.19
2019-01-21T11:40:22.317Z,1019.19
2019-01-21T11:41:22.321Z,1019.22
2019-01-21T11:42:22.198Z,1019.18
2019-01-21T11:43:22.208Z,1019.18
2019-01-21T11:44:22.196Z,1019.22
2019-01-21T11:45:22.075Z,1019.17
2019-01-21T11:46:22.074Z,1019.15
2019-01-21T11:47:21.955Z,1019.15
2019-01-21T11:48:21.956Z,1019.13
2019-01-21T11:49:21.838Z,1019.11
2019-01-21T11:50:21.836Z,1019.17
2019-01-21T11:51:21.833Z,1019.16
2019-01-21T11:52:21.717Z,1019.16
2019-01-21T11:53:21.716Z,1019.18
2019-01-21T11:54:21.593Z,1019.10
2019-01-21T11:55:21.598Z,1019.11
2019-01-21T11:56:21.554Z,1019.18
2019-01-21T11:57:21.476Z,1019.14
2019-01-21T11:58:21.471Z,1019.13
2019-01-21T11:59:21.354Z,1019.10
2019-01-21T12:00:21.352Z,1019.09
2019-01-21T12:01:21.232Z,1019.04
2019-01-21T12:02:21.237Z,1019.08
2019-01-21T12:03:23.659Z,1019.09
2019-01-21T12:04:21.113Z,1019.00